ADDS METAR Data INFO
IDs: Format: Raw Decoded Include TAF

Data at: 0545 UTC 22 Nov 2017

KSHR 220453Z AUTO 00000KT 10SM CLR 01/M01 A3012 RMK AO2 SLP232 T00061006
KSHR 220353Z AUTO 00000KT 10SM CLR 01/00 A3013 RMK AO2 SLP235 T00110000
KSHR 220253Z AUTO 00000KT 10SM CLR 00/M01 A3014 RMK AO2 SLP240 T00001006 56004
KSHR 220153Z AUTO 00000KT 10SM CLR 00/M01 A3014 RMK AO2 SLP240 T00001006
KSHR 220053Z AUTO 21006KT 10SM CLR 00/M01 A3013 RMK AO2 SLP238 T00001006
KSHR 212353Z AUTO 32008KT 10SM CLR 01/00 A3015 RMK AO2 SLP245 T00060000 10067 20000 56016
KSHR 212253Z AUTO 00000KT 10SM CLR 05/01 A3016 RMK AO2 SLP241 T00500011
KSHR 212153Z AUTO 00000KT 10SM CLR 06/01 A3018 RMK AO2 SLP246 T00610011
KSHR 212053Z AUTO 16003KT 10SM CLR 05/01 A3020 RMK AO2 SLP254 T00500011 56019
KSHR 211953Z AUTO 31003KT 10SM CLR 04/01 A3023 RMK AO2 SLP262 T00440006
KSHR 211853Z AUTO VRB03KT 10SM CLR 01/M01 A3024 RMK AO2 SLP273 T00111011
KSHR 211753Z AUTO 13007KT 10SM CLR 01/M02 A3027 RMK AO2 SLP277 T00061017 10006 21033 58007
KSHR 211700Z AUTO 13008KT 10SM FEW012 M01/M03 A3028 RMK AO2 T10111028
KSHR 211653Z AUTO 13008KT 10SM BKN012 M01/M03 A3029 RMK AO2 SLP281 T10111028
KSHR 211553Z AUTO 16003KT 10SM OVC013 M02/M03 A3029 RMK AO2 SLP283 T10221033
KSHR 211453Z AUTO 14003KT 10SM OVC013 M03/M04 A3029 RMK AO2 SLP283 T10281039 53014
KSHR 211353Z AUTO 16003KT 10SM OVC014 M03/M04 A3027 RMK AO2 SLP275 T10281044
KSHR 211343Z AUTO 15003KT 10SM OVC014 M03/M04 A3027 RMK AO2 T10281044
KSHR 211322Z AUTO 00000KT 10SM OVC015 M03/M04 A3026 RMK AO2 T10281044
KSHR 211253Z AUTO 18003KT 10SM OVC014 M03/M04 A3024 RMK AO2 SLP263 T10281044
KSHR 211249Z AUTO 17003KT 10SM OVC014 M03/M04 A3024 RMK AO2
KSHR 211153Z AUTO 27003KT 10SM OVC016 M03/M04 A3024 RMK AO2 SLP261 60008 70009 T10281044 10028 21033 53018
KSHR 211127Z AUTO 00000KT 10SM SCT005 OVC017 M03/M04 A3023 RMK AO2 T10281039
KSHR 211053Z AUTO 02003KT 10SM BKN006 OVC016 M03/M04 A3021 RMK AO2 SNE28 SLP247 P0001 T10331039
KSHR 211038Z AUTO 00000KT 7SM BKN007 BKN016 OVC080 M03/M04 A3020 RMK AO2 SNE28 P0001 T10281039
KSHR 211016Z AUTO 04003KT 3SM -SN BR FEW007 BKN012 OVC080 M03/M04 A3018 RMK AO2 P0001 T10331039
KSHR 211005Z AUTO 05005KT 1 3/4SM -SN BR FEW006 OVC010 M03/M04 A3018 RMK AO2 P0001 T10281039
KSHR 211000Z AUTO 04004KT 2 1/2SM -SN BR BKN010 OVC022 M03/M04 A3018 RMK AO2 P0000 T10281039
KSHR 210953Z AUTO 02004KT 4SM -SN BR BKN009 OVC022 M03/M04 A3019 RMK AO2 SNE32B40 CIG 007V012 SLP241 P0001 T10281039
KSHR 210951Z AUTO 02005KT 3SM -SN BR BKN009 OVC022 M03/M04 A3019 RMK AO2 SNE32B40 CIG 007V012 P0001
KSHR 210937Z AUTO 02005KT 8SM SCT009 OVC022 M03/M03 A3018 RMK AO2 SNE32 P0001 T10281033
KSHR 210930Z AUTO 02006KT 3SM -SN BR BKN008 OVC022 M03/M03 A3017 RMK AO2 P0001 T10281028
KSHR 210906Z AUTO 03009KT 1 3/4SM -SN BR BKN007 OVC012 M02/M03 A3015 RMK AO2 P0000 T10221033
KSHR 210857Z AUTO 01007KT 3SM -SN BR BKN005 OVC012 M02/M02 A3014 RMK AO2 P0000 T10171022
KSHR 210853Z AUTO 36003KT 2SM -SN BR SCT005 OVC012 M02/M02 A3013 RMK AO2 SLP215 P0002 60006 T10171017 51062
KSHR 210825Z AUTO 02008KT 1 1/4SM -SN BR SCT006 OVC010 M02/M02 A3011 RMK AO2 P0002 T10171022
KSHR 210753Z AUTO 04009KT 1SM -SN BR VV006 M01/M02 A3008 RMK AO2 SLP194 P0002 T10111017
KSHR 210733Z AUTO 03007KT 1 1/4SM -SN BR OVC005 M01/M01 A3006 RMK AO2 P0001 T10111011
KSHR 210717Z AUTO 02008KT 2SM -SN BR BKN005 OVC013 M01/M01 A3005 RMK AO2 PRESRR P0001 T10111011
KSHR 210705Z AUTO 01009KT 1 3/4SM -SN BR BKN004 OVC012 M01/M01 A3003 RMK AO2 P0000 T10061011
KSHR 210653Z AUTO 01011KT 4SM -SN BR BKN003 OVC012 00/M01 A3001 RMK AO2 RAE12UPB12E19SNB19 CIG 002V007 SLP168 P0002 T00001006 401670000
KSHR 210636Z AUTO 36009KT 5SM -SN BR BKN004 OVC014 01/01 A2999 RMK AO2 RAE12UPB12E19SNB19 PRESRR P0002 T00060006
KSHR 210628Z AUTO 36007KT 2 1/2SM -SN BR BKN004 BKN010 OVC014 01/01 A2998 RMK AO2 RAE12UPB12E19SNB19 P0002 T00060006
KSHR 210617Z AUTO 36011KT 9SM UP FEW004 OVC014 01/01 A2997 RMK AO2 RAE12UPB12 PRESRR P0001 T00110006
KSHR 210611Z AUTO 01012KT 10SM -RA OVC015 02/01 A2996 RMK AO2 PRESRR P0001 T00170011
KSHR 210553Z AUTO 01010KT 9SM -RA OVC013 03/02 A2993 RMK AO2 RAB30 SLP135 P0001 60001 T00280017 10111 20028 53047
KSHR 210540Z AUTO 36010KT 10SM -RA OVC012 04/02 A2992 RMK AO2 RAB30 P0000 T00390022
KSHR 210453Z AUTO 33008KT 10SM BKN022 OVC085 05/02 A2987 RMK AO2 PRESRR SLP110 T00500022
KSHR 210433Z AUTO 36004KT 10SM SCT024 OVC085 05/02 A2984 RMK AO2 T00500022
KSHR 210419Z AUTO 08003KT 10SM BKN025 BKN060 BKN090 06/02 A2983 RMK AO2 T00560017
KSHR 210353Z AUTO 36004KT 10SM SCT065 OVC085 07/02 A2983 RMK AO2 SLP093 T00670022
KSHR 210253Z AUTO 33010KT 10SM SCT075 OVC095 07/01 A2978 RMK AO2 SLP079 T00720006 51021
KSHR 210153Z AUTO 01006KT 10SM BKN075 OVC090 08/01 A2976 RMK AO2 SLP072 T00830011
KSHR 210053Z AUTO 06008KT 10SM OVC080 09/M01 A2973 RMK AO2 SLP058 T00941011
KSHR 202353Z AUTO 35004KT 10SM OVC095 11/M03 A2971 RMK AO2 SLP052 T01061028 10167 20100 53007
KSHR 202253Z AUTO 29009G14KT 10SM OVC100 13/M02 A2969 RMK AO2 SLP041 T01281017
KSHR 202153Z AUTO 36004KT 10SM BKN100 11/M02 A2968 RMK AO2 SLP050 T01111022
KSHR 202053Z AUTO 27007KT 10SM BKN100 OVC120 14/M03 A2969 RMK AO2 SLP046 T01391033 53003
KSHR 201953Z AUTO 26010KT 10SM CLR 14/M04 A2966 RMK AO2 PK WND 25027/1909 SLP043 T01391044
KSHR 201853Z AUTO 29011G18KT 10SM CLR 16/M05 A2967 RMK AO2 SLP045 T01561050
KSHR 201753Z AUTO 27013KT 10SM CLR 14/M06 A2968 RMK AO2 PK WND 26027/1738 SLP046 T01441061 10150 20089 53020